Time;durP1;ratioP1;P1;durP2;ratioP2;P2;SDS_P1;SDS_P2;PMS_P1;PMS_P2;Temp;Humidity;BMP_temperature;BMP_pressure;BME280_temperature;BME280_humidity;BME280_pressure;Samples;Min_cycle;Max_cycle;Signal;HPM_P1;HPM_P2
2022/08/12 00:43:57;;;;;;;5.35;3.65;;;;;;;20.57;49.13;101865.22;4997196;28;21691;-57
2022/08/12 00:46:31;;;;;;;7.63;3.30;;;;;;;20.59;49.06;101870.41;5002250;28;20484;-58
2022/08/12 00:48:58;;;;;;;8.38;3.20;;;;;;;20.46;49.26;101865.03;5003201;28;20029;-58
2022/08/12 00:52:05;;;;;;;4.25;3.40;;;;;;;20.47;49.70;101870.22;5004855;28;20655;-58
2022/08/12 00:54:09;;;;;;;7.78;3.28;;;;;;;20.50;49.49;101874.34;5001318;28;20033;-57
2022/08/12 00:56:37;;;;;;;5.97;3.60;;;;;;;20.42;49.96;101870.84;5017464;28;20037;-57
2022/08/12 00:59:03;;;;;;;5.97;3.50;;;;;;;20.39;50.08;101865.84;5008402;28;20401;-56
2022/08/12 01:01:29;;;;;;;6.97;3.55;;;;;;;20.34;50.00;101867.53;5012829;28;20025;-57
2022/08/12 01:12:11;;;;;;;5.85;3.38;;;;;;;20.01;50.87;101870.25;5011343;28;20040;-57
2022/08/12 01:14:38;;;;;;;7.28;3.45;;;;;;;19.87;51.07;101871.28;5010175;28;20464;-57
2022/08/12 01:17:03;;;;;;;6.75;3.50;;;;;;;19.92;51.18;101866.91;5010691;28;20071;-57
2022/08/12 01:19:29;;;;;;;4.53;3.30;;;;;;;19.99;51.24;101864.25;5010575;28;20029;-58
2022/08/12 01:22:25;;;;;;;6.28;3.60;;;;;;;19.96;51.22;101873.56;5011747;28;20482;-58
2022/08/12 01:25:11;;;;;;;6.70;3.47;;;;;;;19.70;52.17;101866.28;5016687;28;20026;-57
2022/08/12 01:27:39;;;;;;;4.78;3.50;;;;;;;19.47;52.52;101871.19;5010950;28;20429;-58
2022/08/12 01:30:07;;;;;;;5.38;3.72;;;;;;;19.42;52.51;101870.97;5016581;28;20108;-58
2022/08/12 01:32:36;;;;;;;5.18;3.60;;;;;;;19.32;52.97;101857.88;5012480;28;20125;-58
2022/08/12 01:35:11;;;;;;;4.43;3.42;;;;;;;19.19;53.40;101872.16;5007076;28;20080;-57
2022/08/12 01:38:00;;;;;;;6.18;3.47;;;;;;;19.25;53.66;101870.50;5007375;28;20062;-57
2022/08/12 01:40:31;;;;;;;10.18;3.53;;;;;;;19.11;54.22;101872.34;5009064;28;20018;-57
2022/08/12 01:43:01;;;;;;;8.23;3.60;;;;;;;18.94;54.41;101876.41;5008243;28;20116;-58
2022/08/12 01:45:28;;;;;;;6.35;3.55;;;;;;;18.84;54.96;101878.66;5009495;28;20017;-57
2022/08/12 01:47:56;;;;;;;5.95;3.78;;;;;;;18.80;55.01;101878.22;5012320;28;20049;-57
2022/08/12 01:50:35;;;;;;;8.13;3.73;;;;;;;18.79;55.55;101873.88;5010252;28;20036;-58
2022/08/12 01:53:10;;;;;;;4.07;3.45;;;;;;;18.77;55.15;101869.69;5005315;28;20021;-57
2022/08/12 01:55:38;;;;;;;4.15;3.40;;;;;;;18.78;55.70;101861.41;5009515;28;20436;-58
2022/08/12 01:58:29;;;;;;;4.28;3.53;;;;;;;18.79;55.94;101867.63;5009036;28;20496;-57
2022/08/12 02:01:10;;;;;;;9.02;3.80;;;;;;;18.71;55.73;101857.84;5011017;28;20729;-57
2022/08/12 02:12:52;;;;;;;6.18;3.45;;;;;;;18.88;56.21;101859.19;5009155;28;20037;-57
2022/08/12 02:15:41;;;;;;;6.45;3.58;;;;;;;18.85;56.37;101866.84;5004652;28;20028;-58
2022/08/12 02:18:32;;;;;;;7.50;4.03;;;;;;;18.73;56.31;101860.34;5008620;28;20030;-57
2022/08/12 02:21:18;;;;;;;6.57;3.75;;;;;;;18.57;56.56;101856.94;5005660;28;20022;-57
2022/08/12 02:23:44;;;;;;;5.55;4.07;;;;;;;18.52;56.91;101853.19;5007782;28;20021;-58
2022/08/12 02:26:14;;;;;;;6.25;4.03;;;;;;;18.43;56.75;101851.66;5009999;28;20080;-57
2022/08/12 02:28:40;;;;;;;6.53;4.38;;;;;;;18.38;56.98;101851.44;5006149;28;20088;-58
2022/08/12 02:31:07;;;;;;;7.90;4.13;;;;;;;18.38;57.39;101852.25;5002004;28;20474;-58
2022/08/12 02:33:33;;;;;;;4.97;3.95;;;;;;;18.54;57.11;101851.13;5010011;28;20030;-57
2022/08/12 02:36:01;;;;;;;5.35;3.90;;;;;;;18.63;57.17;101855.34;5007903;28;20397;-58
2022/08/12 02:38:29;;;;;;;6.50;4.18;;;;;;;18.69;57.46;101846.47;5004733;28;20152;-58
2022/08/12 02:40:57;;;;;;;8.43;4.13;;;;;;;18.72;57.23;101848.75;5007290;28;20032;-57
2022/08/12 02:43:36;;;;;;;8.77;4.30;;;;;;;18.70;57.75;101855.38;5009049;28;20029;-58
2022/08/12 02:46:03;;;;;;;6.20;4.47;;;;;;;18.72;57.74;101854.13;5010930;28;20307;-58
2022/08/12 02:48:39;;;;;;;7.47;4.40;;;;;;;18.74;57.66;101852.06;5009402;28;20033;-57
2022/08/12 02:51:08;;;;;;;6.47;4.18;;;;;;;18.69;57.55;101854.53;5009558;28;20041;-57
2022/08/12 02:53:36;;;;;;;7.40;4.70;;;;;;;18.66;57.76;101849.56;5008521;28;20025;-57
2022/08/12 02:56:02;;;;;;;6.20;4.30;;;;;;;18.72;58.16;101853.31;5015631;28;20022;-57
2022/08/12 02:58:30;;;;;;;10.10;4.45;;;;;;;18.72;58.22;101851.44;5008677;28;20153;-58
2022/08/12 03:01:00;;;;;;;7.50;4.80;;;;;;;18.78;58.26;101849.81;5009176;28;20029;-57
2022/08/12 03:03:29;;;;;;;6.57;5.13;;;;;;;18.74;58.51;101853.94;5005578;28;20432;-57
2022/08/12 03:06:14;;;;;;;6.13;4.43;;;;;;;18.77;58.34;101848.16;5008023;28;20097;-57
2022/08/12 03:08:42;;;;;;;7.13;4.63;;;;;;;18.77;58.20;101848.97;5008906;28;20109;-57
2022/08/12 03:11:27;;;;;;;8.70;4.78;;;;;;;18.81;58.47;101849.44;5008691;28;20025;-58
2022/08/12 03:14:04;;;;;;;7.75;5.05;;;;;;;18.73;58.47;101847.72;4992155;28;20132;-57
2022/08/12 03:16:30;;;;;;;5.80;4.57;;;;;;;18.71;58.72;101841.72;5005726;28;20014;-57
2022/08/12 03:18:56;;;;;;;6.75;4.68;;;;;;;18.70;58.35;101850.00;5011889;28;20056;-58
2022/08/12 03:21:24;;;;;;;8.52;4.90;;;;;;;18.66;58.90;101833.41;5007140;28;20054;-57
2022/08/12 03:23:52;;;;;;;7.28;4.70;;;;;;;18.64;58.77;101840.03;5005339;28;20101;-58
2022/08/12 03:26:21;;;;;;;7.95;4.72;;;;;;;18.68;58.91;101841.28;5004011;28;20057;-57
2022/08/12 03:28:55;;;;;;;12.38;5.55;;;;;;;18.64;59.15;101832.78;5008217;28;20026;-58
2022/08/12 03:31:32;;;;;;;6.63;4.97;;;;;;;18.68;59.49;101836.75;5005187;28;20076;-57
2022/08/12 03:34:07;;;;;;;8.05;4.97;;;;;;;18.70;60.04;101833.84;5004716;28;20017;-57
2022/08/12 03:36:36;;;;;;;8.13;4.70;;;;;;;18.66;59.69;101828.03;5007295;28;20029;-57
2022/08/12 03:39:20;;;;;;;5.50;4.93;;;;;;;18.67;59.65;101842.31;5008762;28;20084;-58
2022/08/12 03:41:58;;;;;;;6.88;5.22;;;;;;;18.70;60.07;101833.84;5011627;28;20041;-58
2022/08/12 04:01:11;;;;;;;6.70;5.22;;;;;;;18.53;60.33;101836.03;5002489;28;20028;-57
2022/08/12 04:03:53;;;;;;;10.70;5.60;;;;;;;18.47;60.01;101839.47;5007577;28;20029;-58
2022/08/12 04:06:25;;;;;;;10.02;5.30;;;;;;;18.47;60.58;101842.16;5012819;28;20068;-57
2022/08/12 04:08:52;;;;;;;10.90;5.65;;;;;;;18.30;60.11;101833.59;5004796;28;20409;-57
2022/08/12 04:14:19;;;;;;;20.23;6.47;;;;;;;18.16;60.54;101839.91;4965835;28;20026;-58
2022/08/12 04:16:47;;;;;;;9.35;5.53;;;;;;;18.21;60.57;101843.69;4997321;28;20366;-57
2022/08/12 04:19:14;;;;;;;10.32;5.65;;;;;;;18.24;61.02;101840.59;5006423;28;20030;-58
2022/08/12 04:21:40;;;;;;;10.27;5.75;;;;;;;18.22;61.53;101837.28;5006203;28;20119;-56
2022/08/12 04:24:06;;;;;;;12.20;6.18;;;;;;;18.23;61.76;101843.50;5007004;28;20060;-58
2022/08/12 04:26:31;;;;;;;8.27;5.97;;;;;;;18.27;61.60;101842.06;5004703;28;20111;-57
2022/08/12 04:28:58;;;;;;;8.52;5.93;;;;;;;18.27;61.57;101842.91;5010288;28;20040;-57
2022/08/12 04:31:43;;;;;;;8.77;6.00;;;;;;;18.27;61.90;101844.75;5008319;28;20033;-57
2022/08/12 04:34:10;;;;;;;9.00;6.35;;;;;;;18.18;62.15;101824.41;5007794;28;20402;-57
2022/08/12 04:36:38;;;;;;;9.57;5.50;;;;;;;18.29;62.19;101839.19;5012803;28;20025;-57
2022/08/12 04:39:06;;;;;;;14.48;5.40;;;;;;;18.23;62.13;101844.31;5007289;28;20054;-57
2022/08/12 04:41:31;;;;;;;7.10;6.07;;;;;;;18.18;62.63;101844.06;5011372;28;20026;-57
2022/08/12 04:43:57;;;;;;;11.35;6.30;;;;;;;18.16;63.00;101839.91;5011647;28;20021;-57
2022/08/12 04:46:24;;;;;;;9.40;6.30;;;;;;;18.14;63.28;101839.25;5011188;28;20117;-57
2022/08/12 04:48:50;;;;;;;8.05;5.88;;;;;;;18.15;63.07;101844.44;5011643;28;20032;-57
2022/08/12 04:51:17;;;;;;;9.60;5.90;;;;;;;18.14;63.27;101847.34;5010223;28;20050;-58
2022/08/12 04:53:43;;;;;;;10.00;6.18;;;;;;;18.12;63.22;101844.84;5011610;28;20572;-57
2022/08/12 04:56:12;;;;;;;8.32;5.95;;;;;;;18.19;63.26;101844.88;5009079;28;20030;-57
2022/08/12 04:58:38;;;;;;;11.77;5.90;;;;;;;18.23;62.83;101846.19;5010366;28;20025;-56
2022/08/12 05:01:05;;;;;;;8.93;5.95;;;;;;;18.23;63.13;101844.31;5010064;28;20021;-57
2022/08/12 05:03:30;;;;;;;11.95;6.18;;;;;;;18.29;63.34;101844.56;5013627;28;20076;-58
2022/08/12 05:05:57;;;;;;;13.80;5.88;;;;;;;18.36;63.30;101848.94;5010414;28;20057;-57
2022/08/12 05:08:24;;;;;;;9.52;6.35;;;;;;;18.45;63.40;101842.38;5008892;28;20025;-57
2022/08/12 05:10:49;;;;;;;10.75;6.10;;;;;;;18.52;63.13;101848.63;5009832;28;20026;-57
2022/08/12 05:13:19;;;;;;;8.57;6.25;;;;;;;18.63;63.15;101849.97;5006022;28;20026;-57
2022/08/12 05:15:44;;;;;;;7.07;6.32;;;;;;;18.63;63.36;101833.81;5016810;28;20030;-57
2022/08/12 05:18:10;;;;;;;10.48;6.72;;;;;;;18.79;63.22;101855.03;5010770;28;20029;-57
2022/08/12 05:20:37;;;;;;;12.52;6.03;;;;;;;18.83;62.91;101839.31;5010321;28;20501;-57
2022/08/12 05:23:07;;;;;;;10.38;6.20;;;;;;;18.91;63.06;101843.69;5007101;28;20029;-58
2022/08/12 05:25:33;;;;;;;14.15;6.65;;;;;;;18.97;63.15;101837.47;5009275;28;20310;-57
2022/08/12 05:27:59;;;;;;;11.45;6.70;;;;;;;19.03;62.82;101839.34;5009160;28;20025;-57
2022/08/12 05:30:26;;;;;;;9.25;6.40;;;;;;;19.10;62.80;101841.06;5008130;28;20048;-57
2022/08/12 05:32:52;;;;;;;12.32;6.75;;;;;;;19.15;63.34;101840.44;5007565;28;20065;-57
2022/08/12 05:35:17;;;;;;;9.18;6.20;;;;;;;19.22;63.49;101837.78;5007850;28;20025;-58
2022/08/12 05:37:42;;;;;;;9.40;6.38;;;;;;;19.25;63.34;101835.50;5010236;28;20021;-57
2022/08/12 05:40:08;;;;;;;13.93;6.65;;;;;;;19.32;62.61;101857.88;5010708;28;20090;-57
2022/08/12 05:42:34;;;;;;;11.43;6.47;;;;;;;19.35;62.41;101848.56;5010530;28;20715;-57
2022/08/12 05:44:59;;;;;;;11.82;6.47;;;;;;;19.42;62.06;101854.81;5006765;28;20018;-58
2022/08/12 05:47:24;;;;;;;11.40;6.35;;;;;;;19.47;62.24;101858.56;5009926;28;20075;-57
2022/08/12 05:49:49;;;;;;;14.90;6.22;;;;;;;19.56;62.16;101859.22;5010311;28;20033;-58
2022/08/12 05:52:15;;;;;;;14.70;6.72;;;;;;;19.63;62.69;101867.31;5009085;28;20032;-57
2022/08/12 05:54:43;;;;;;;14.80;7.18;;;;;;;19.68;62.11;101860.28;5009240;28;20422;-58
2022/08/12 05:57:10;;;;;;;14.05;7.30;;;;;;;19.77;61.75;101856.34;5013431;28;20494;-57
2022/08/12 05:59:37;;;;;;;12.52;7.60;;;;;;;19.85;61.88;101863.38;5005525;28;20014;-57
2022/08/12 06:02:06;;;;;;;10.57;6.90;;;;;;;19.97;61.51;101867.16;5009465;28;20057;-58
2022/08/12 06:04:32;;;;;;;11.80;7.30;;;;;;;20.03;62.19;101862.78;5006964;28;20026;-57
2022/08/12 06:06:58;;;;;;;13.75;7.38;;;;;;;20.06;61.89;101863.19;5011035;28;20048;-57
2022/08/12 06:09:26;;;;;;;13.25;7.40;;;;;;;20.19;61.44;101866.91;5008394;28;20175;-58
2022/08/12 06:11:51;;;;;;;12.10;7.50;;;;;;;20.30;61.13;101868.97;5011910;28;20056;-57
2022/08/12 06:14:18;;;;;;;11.93;7.85;;;;;;;20.31;60.87;101873.34;5004175;28;20022;-57
2022/08/12 06:16:45;;;;;;;11.50;7.90;;;;;;;20.39;60.77;101873.13;5000677;28;20033;-56
2022/08/12 06:19:10;;;;;;;11.00;7.70;;;;;;;20.40;60.37;101869.41;4998873;28;20038;-57
2022/08/12 06:21:36;;;;;;;12.80;8.60;;;;;;;20.44;60.37;101867.94;5009794;28;20405;-56
2022/08/12 06:24:02;;;;;;;10.98;8.75;;;;;;;20.52;60.12;101877.66;5004352;28;20062;-57
2022/08/12 06:26:27;;;;;;;12.75;8.48;;;;;;;20.54;59.39;101875.63;5000881;28;20058;-57
2022/08/12 06:28:53;;;;;;;19.13;8.15;;;;;;;20.59;59.26;101868.53;4999994;28;20172;-57
2022/08/12 06:31:19;;;;;;;13.30;8.57;;;;;;;20.67;58.75;101865.59;4999488;28;20026;-57
2022/08/12 06:33:47;;;;;;;14.43;8.95;;;;;;;20.76;58.88;101868.06;4998007;28;20022;-57
2022/08/12 06:36:17;;;;;;;12.70;9.20;;;;;;;20.84;58.38;101868.69;5009536;28;20079;-57
2022/08/12 06:38:44;;;;;;;13.43;9.27;;;;;;;20.92;58.71;101865.72;5004921;28;20026;-57
2022/08/12 06:43:55;;;;;;;15.50;9.40;;;;;;;21.10;58.36;101870.41;5005603;28;20410;-58
2022/08/12 06:46:25;;;;;;;13.65;9.57;;;;;;;21.15;57.54;101877.91;5010592;28;20436;-58
2022/08/12 06:48:56;;;;;;;13.90;10.02;;;;;;;21.17;57.37;101860.44;5009208;28;20461;-57
2022/08/12 06:51:27;;;;;;;12.75;9.90;;;;;;;21.32;57.10;101871.78;5010435;28;20026;-58
2022/08/12 06:53:54;;;;;;;13.50;9.82;;;;;;;21.37;56.97;101865.72;5005657;28;20030;-57
2022/08/12 06:56:20;;;;;;;17.90;10.02;;;;;;;21.41;56.78;101866.16;5010794;28;20037;-58
2022/08/12 06:58:45;;;;;;;10.88;9.50;;;;;;;21.51;56.85;101863.78;5009446;28;20193;-58
2022/08/12 07:01:11;;;;;;;13.75;10.23;;;;;;;21.54;56.10;101869.59;5009337;28;20064;-56
2022/08/12 07:03:37;;;;;;;13.27;9.90;;;;;;;21.64;55.81;101860.97;5008425;28;20026;-58
2022/08/12 07:06:05;;;;;;;18.70;9.85;;;;;;;21.68;55.74;101864.91;5004304;28;20076;-56
2022/08/12 07:08:33;;;;;;;17.33;9.45;;;;;;;21.78;55.02;101865.25;5011823;28;20549;-57
2022/08/12 07:11:01;;;;;;;13.43;10.23;;;;;;;21.87;55.06;101865.81;5004087;28;20037;-58
2022/08/12 07:13:34;;;;;;;15.90;9.57;;;;;;;21.96;54.89;101865.31;5008309;28;20065;-57
2022/08/12 07:16:01;;;;;;;19.05;9.65;;;;;;;22.04;54.21;101858.84;5010677;28;20033;-58
2022/08/12 07:18:31;;;;;;;14.65;9.30;;;;;;;22.13;54.01;101860.22;5008863;28;20033;-57
2022/08/12 07:20:57;;;;;;;18.40;9.18;;;;;;;22.22;53.75;101863.44;5006777;28;20026;-58
2022/08/12 07:23:23;;;;;;;13.02;8.80;;;;;;;22.36;54.50;101864.16;5003809;28;20071;-57
2022/08/12 07:25:48;;;;;;;17.85;8.98;;;;;;;22.50;53.91;101863.78;5009973;28;20022;-57
2022/08/12 07:28:22;;;;;;;13.82;8.50;;;;;;;22.58;53.73;101873.50;5006741;28;20026;-58
2022/08/12 07:30:50;;;;;;;14.15;8.88;;;;;;;22.73;53.64;101875.84;5004937;28;20040;-57
2022/08/12 07:33:21;;;;;;;13.23;8.60;;;;;;;22.80;53.33;101871.97;5006504;28;20367;-57
2022/08/12 07:35:48;;;;;;;13.20;8.35;;;;;;;22.83;53.16;101868.03;5002805;28;20072;-58
2022/08/12 07:38:32;;;;;;;16.95;8.30;;;;;;;22.89;52.67;101880.69;5004844;28;20570;-57
2022/08/12 07:41:04;;;;;;;14.73;8.05;;;;;;;22.91;52.17;101875.88;5007328;28;20041;-57
2022/08/12 07:43:31;;;;;;;15.10;8.30;;;;;;;22.95;52.70;101877.06;5013533;28;20033;-56
2022/08/12 07:45:57;;;;;;;11.60;8.30;;;;;;;23.03;52.35;101875.91;5006309;28;20034;-58
2022/08/12 07:48:23;;;;;;;12.57;8.43;;;;;;;23.10;51.44;101877.47;5004428;28;20593;-58
2022/08/12 07:50:50;;;;;;;11.32;7.28;;;;;;;23.18;51.45;101888.03;5005943;28;20030;-57
2022/08/12 07:53:15;;;;;;;12.73;6.97;;;;;;;23.24;51.26;101883.56;5004848;28;20017;-58
2022/08/12 07:55:41;;;;;;;12.80;7.60;;;;;;;23.31;50.51;101880.75;4996561;28;20033;-58
2022/08/12 07:58:07;;;;;;;12.63;6.93;;;;;;;23.38;50.90;101881.50;5005331;28;20033;-58
2022/08/12 08:00:34;;;;;;;13.43;6.88;;;;;;;23.46;50.29;101883.91;5009050;28;20061;-58
2022/08/12 08:03:01;;;;;;;16.38;7.13;;;;;;;23.53;50.30;101875.66;5004598;28;20041;-58
2022/08/12 08:05:48;;;;;;;14.82;6.68;;;;;;;23.58;49.77;101879.34;5006841;28;20033;-57
2022/08/12 08:08:20;;;;;;;16.90;7.20;;;;;;;23.65;48.78;101880.06;5009183;28;20162;-56
2022/08/12 08:10:46;;;;;;;11.43;6.60;;;;;;;23.75;48.85;101877.63;5007177;28;20024;-57
2022/08/12 08:13:12;;;;;;;12.35;6.43;;;;;;;23.85;48.40;101884.38;5006924;28;20059;-57
2022/08/12 08:15:39;;;;;;;13.35;6.03;;;;;;;23.90;48.20;101881.78;5004835;28;20029;-57
2022/08/12 08:18:07;;;;;;;13.25;5.80;;;;;;;24.01;47.88;101881.00;5002506;28;20023;-58
2022/08/12 08:20:39;;;;;;;15.15;5.93;;;;;;;24.04;47.65;101883.22;5009344;28;20026;-57
2022/08/12 08:23:08;;;;;;;14.23;5.50;;;;;;;24.10;46.77;101888.53;5003950;28;20033;-57
2022/08/12 08:25:37;;;;;;;9.85;5.65;;;;;;;24.16;46.47;101891.38;5008776;28;20124;-58
2022/08/12 08:28:15;;;;;;;10.23;5.40;;;;;;;24.22;46.70;101883.09;5003017;28;20668;-57
2022/08/12 08:30:44;;;;;;;16.48;5.57;;;;;;;24.29;46.14;101885.75;5004752;28;20026;-57
2022/08/12 08:33:11;;;;;;;12.55;5.15;;;;;;;24.38;45.57;101885.16;5002502;28;20022;-57
2022/08/12 08:35:39;;;;;;;15.07;5.13;;;;;;;24.47;45.37;101895.66;5008896;28;20026;-58
2022/08/12 08:38:12;;;;;;;13.03;5.40;;;;;;;24.51;45.17;101897.66;5001087;28;20022;-57
2022/08/12 08:43:26;;;;;;;;;;;;;;;24.68;45.29;101898.59;5008172;28;20401;-58
2022/08/12 08:45:55;;;;;;;13.60;5.20;;;;;;;24.79;45.01;101896.91;5006577;28;19913;-58
2022/08/12 08:48:21;;;;;;;10.18;4.90;;;;;;;24.85;44.97;101893.22;5007926;28;20269;-58
2022/08/12 08:50:46;;;;;;;13.48;5.00;;;;;;;24.96;44.48;101897.00;5007437;28;20041;-57
2022/08/12 08:53:12;;;;;;;12.75;5.13;;;;;;;25.02;43.84;101888.72;5006708;28;20018;-56
2022/08/12 08:55:39;;;;;;;14.98;4.90;;;;;;;25.12;43.86;101890.81;5007823;28;20030;-57
2022/08/12 08:58:05;;;;;;;10.00;4.80;;;;;;;25.15;43.28;101894.94;5009005;28;20137;-58
2022/08/12 09:00:30;;;;;;;12.85;4.63;;;;;;;25.28;43.13;101894.66;5006457;28;20116;-58
2022/08/12 09:02:55;;;;;;;12.52;4.50;;;;;;;25.33;42.48;101898.28;5005348;28;20034;-57
2022/08/12 09:05:20;;;;;;;12.13;4.47;;;;;;;25.43;42.41;101892.22;5012212;28;20014;-58
2022/08/12 09:07:49;;;;;;;9.63;4.70;;;;;;;25.55;42.11;101895.72;5005098;28;20033;-58
2022/08/12 09:10:18;;;;;;;14.30;4.50;;;;;;;25.71;42.09;101890.56;5006955;28;20022;-57
2022/08/12 09:15:29;;;;;;;9.88;4.43;;;;;;;26.05;41.47;101884.09;5007292;28;20181;-57
2022/08/12 09:17:56;;;;;;;10.90;4.65;;;;;;;26.24;41.36;101890.06;5004290;28;20049;-58
2022/08/12 09:20:33;;;;;;;15.88;4.88;;;;;;;26.34;40.44;101884.00;5007922;28;20390;-57
2022/08/12 09:23:04;;;;;;;9.88;4.43;;;;;;;26.53;40.46;101879.91;5007223;28;20034;-58
2022/08/12 09:25:30;;;;;;;12.82;4.43;;;;;;;26.69;40.40;101886.38;5007656;28;20104;-58
2022/08/12 09:27:59;;;;;;;8.32;4.00;;;;;;;26.90;39.77;101891.03;5011158;28;20026;-58
2022/08/12 09:30:26;;;;;;;9.85;4.40;;;;;;;26.99;39.63;101891.44;5006402;28;20451;-58
2022/08/12 09:32:52;;;;;;;8.85;4.07;;;;;;;27.23;39.57;101890.06;5002300;28;20022;-58
2022/08/12 09:35:23;;;;;;;13.43;4.00;;;;;;;27.41;38.76;101889.69;5006348;28;20030;-57
2022/08/12 09:37:54;;;;;;;7.07;3.60;;;;;;;27.49;38.48;101876.69;5003347;28;20502;-58
2022/08/12 09:40:22;;;;;;;7.50;3.58;;;;;;;27.64;37.95;101874.13;5014218;28;20018;-58
2022/08/12 09:45:32;;;;;;;7.57;3.45;;;;;;;27.97;36.74;101878.50;5003788;28;20039;-58
2022/08/12 09:48:02;;;;;;;7.40;3.30;;;;;;;28.14;36.33;101875.63;5013562;28;20405;-58
2022/08/12 09:50:28;;;;;;;7.82;3.42;;;;;;;28.24;35.88;101868.34;5016133;28;20587;-58
2022/08/12 09:53:14;;;;;;;9.77;4.03;;;;;;;28.39;36.40;101870.34;5008217;28;20030;-58
2022/08/12 09:55:47;;;;;;;6.03;3.25;;;;;;;28.60;35.64;101872.06;5011849;28;20100;-58
2022/08/12 09:58:16;;;;;;;6.32;3.17;;;;;;;28.83;35.13;101853.59;5016180;28;20017;-58
2022/08/12 10:00:42;;;;;;;9.85;3.05;;;;;;;29.02;34.66;101857.53;5015057;28;20034;-58
2022/08/12 10:03:09;;;;;;;8.70;3.40;;;;;;;29.08;34.82;101861.91;5012230;28;20481;-58
2022/08/12 10:05:42;;;;;;;12.35;3.30;;;;;;;29.17;34.18;101860.28;5007864;28;20033;-58
2022/08/12 10:08:09;;;;;;;6.30;3.30;;;;;;;29.32;34.86;101859.50;5003092;28;20127;-58
2022/08/12 10:13:40;;;;;;;12.00;3.92;;;;;;;29.45;34.06;101861.72;5010355;28;20385;-58
2022/08/12 10:16:06;;;;;;;8.40;2.92;;;;;;;29.50;32.71;101853.53;5004387;28;20037;-58
2022/08/12 10:18:36;;;;;;;5.85;2.72;;;;;;;29.45;32.18;101849.94;5002813;28;20026;-58
2022/08/12 10:21:06;;;;;;;8.75;3.30;;;;;;;29.53;32.08;101854.91;4997305;28;20039;-58
2022/08/12 10:23:31;;;;;;;8.27;3.20;;;;;;;29.53;31.43;101847.53;4998385;28;20017;-58
2022/08/12 10:31:24;;;;;;;4.32;2.50;;;;;;;29.60;31.10;101837.09;4999298;28;20449;-57
2022/08/12 10:33:50;;;;;;;7.63;2.35;;;;;;;29.59;30.88;101830.00;5000782;28;20037;-57
2022/08/12 10:36:15;;;;;;;5.90;2.60;;;;;;;29.62;30.20;101825.06;5001999;28;20018;-58
2022/08/12 10:38:40;;;;;;;7.07;2.42;;;;;;;29.64;30.29;101826.44;4999442;28;20041;-58
2022/08/12 10:43:49;;;;;;;3.42;2.65;;;;;;;29.84;30.25;101820.94;5002906;28;20466;-58
2022/08/12 10:46:18;;;;;;;7.32;2.88;;;;;;;29.87;29.48;101812.16;5002100;28;20514;-58
2022/08/12 10:48:50;;;;;;;6.95;3.55;;;;;;;30.01;29.96;101806.09;5006765;28;20021;-58
2022/08/12 10:51:17;;;;;;;3.08;2.65;;;;;;;29.91;29.49;101806.97;5008147;28;20570;-58
2022/08/12 10:53:46;;;;;;;5.88;3.25;;;;;;;30.06;29.96;101795.97;5009260;28;20033;-58
2022/08/12 10:56:12;;;;;;;5.32;2.58;;;;;;;30.24;29.69;101796.50;5002175;28;20733;-58
2022/08/12 10:58:38;;;;;;;6.80;3.05;;;;;;;30.34;29.48;101794.53;5006424;28;20111;-57
2022/08/12 11:01:05;;;;;;;4.75;2.90;;;;;;;30.47;29.44;101802.16;5006594;28;20053;-58
2022/08/12 11:03:36;;;;;;;7.13;2.53;;;;;;;30.61;29.25;101791.41;5016001;28;20026;-58
2022/08/12 11:06:06;;;;;;;4.30;2.30;;;;;;;30.49;28.63;101799.13;5012373;28;20051;-58
2022/08/12 11:08:33;;;;;;;8.05;2.88;;;;;;;30.63;29.25;101788.41;5006723;28;20056;-58
2022/08/12 11:10:58;;;;;;;7.43;2.53;;;;;;;30.55;28.65;101791.72;5008606;28;20127;-58
2022/08/12 11:13:24;;;;;;;4.50;2.63;;;;;;;30.36;28.32;101783.28;5010099;28;20364;-58
2022/08/12 11:15:53;;;;;;;4.88;2.50;;;;;;;30.52;28.17;101780.19;5001897;28;20034;-57
2022/08/12 11:18:18;;;;;;;6.28;2.60;;;;;;;30.72;28.63;101779.31;4999785;28;20030;-58
2022/08/12 11:20:44;;;;;;;4.45;2.78;;;;;;;30.68;28.04;101771.94;4999020;28;20494;-57
2022/08/12 11:23:09;;;;;;;6.50;2.83;;;;;;;30.76;28.16;101774.09;5000968;28;20026;-58
2022/08/12 11:25:35;;;;;;;10.90;5.63;;;;;;;30.64;27.91;101760.69;4999225;28;20045;-58
2022/08/12 11:28:00;;;;;;;4.03;2.38;;;;;;;30.75;28.24;101770.53;4994597;28;20791;-58
2022/08/12 11:30:25;;;;;;;4.40;2.60;;;;;;;30.72;27.49;101771.09;4995394;28;20037;-58
2022/08/12 11:32:51;;;;;;;5.72;2.78;;;;;;;30.59;27.82;101762.63;4995730;28;20034;-58
2022/08/12 11:35:16;;;;;;;7.88;2.60;;;;;;;30.75;27.82;101767.78;4997656;28;20022;-58
2022/08/12 11:37:41;;;;;;;6.75;2.70;;;;;;;30.64;27.71;101760.69;5001573;28;20043;-58
2022/08/12 11:40:07;;;;;;;7.75;2.60;;;;;;;30.57;27.58;101767.56;5003156;28;20025;-58
2022/08/12 11:42:34;;;;;;;6.07;2.70;;;;;;;30.56;27.90;101766.75;4996107;28;20101;-58
2022/08/12 11:44:59;;;;;;;9.25;2.97;;;;;;;30.65;28.02;101758.78;4994455;28;20088;-58
2022/08/12 11:47:25;;;;;;;8.48;2.92;;;;;;;30.80;28.43;101756.78;5005934;28;20432;-57
2022/08/12 11:49:50;;;;;;;8.15;2.92;;;;;;;30.78;27.93;101750.75;4993145;28;20038;-58
2022/08/12 11:52:15;;;;;;;4.57;2.88;;;;;;;30.91;27.47;101746.53;4997158;28;20014;-58
2022/08/12 11:54:41;;;;;;;3.28;2.63;;;;;;;30.88;27.43;101741.63;4999060;28;20469;-58
2022/08/12 11:57:06;;;;;;;4.05;2.50;;;;;;;30.85;26.82;101733.16;5003380;28;20042;-59
2022/08/12 11:59:31;;;;;;;9.93;5.03;;;;;;;30.91;27.52;101740.22;4994888;28;20034;-58
2022/08/12 12:01:57;;;;;;;9.18;6.07;;;;;;;30.94;27.85;101735.03;4998225;28;20038;-59
2022/08/12 12:04:22;;;;;;;5.72;2.70;;;;;;;30.97;27.58;101741.84;4996136;28;20026;-58
2022/08/12 12:06:47;;;;;;;5.78;2.50;;;;;;;31.01;27.35;101730.03;5000056;28;20705;-59
2022/08/12 12:09:13;;;;;;;4.65;2.65;;;;;;;30.99;27.05;101726.75;4998898;28;20291;-58
2022/08/12 12:11:38;;;;;;;7.22;2.80;;;;;;;30.98;27.48;101719.63;5005808;28;20040;-58
2022/08/12 12:14:03;;;;;;;7.82;2.80;;;;;;;31.00;26.92;101731.13;5007048;28;20482;-58
2022/08/12 12:16:29;;;;;;;4.25;2.30;;;;;;;31.08;27.21;101721.47;5003972;28;20107;-58
2022/08/12 12:18:54;;;;;;;5.40;2.40;;;;;;;31.18;27.42;101724.13;5005886;28;20017;-58
2022/08/12 12:21:19;;;;;;;3.88;2.20;;;;;;;31.22;27.89;101719.72;5004596;28;20025;-58
2022/08/12 12:23:45;;;;;;;5.40;2.97;;;;;;;31.24;28.00;101725.75;5008368;28;20025;-59
2022/08/12 12:26:10;;;;;;;4.57;2.85;;;;;;;31.12;26.83;101720.59;5002559;28;20434;-58
2022/08/12 12:28:37;;;;;;;4.72;2.45;;;;;;;31.15;27.03;101713.69;5002997;28;20134;-59
2022/08/12 12:31:04;;;;;;;6.82;3.00;;;;;;;31.08;26.91;101721.47;5012192;28;20033;-58
2022/08/12 12:33:29;;;;;;;16.17;10.70;;;;;;;31.12;27.06;101700.56;5009373;28;20485;-59
2022/08/12 12:35:54;;;;;;;4.20;2.70;;;;;;;31.13;26.21;101696.72;5007136;28;20538;-59
2022/08/12 12:38:20;;;;;;;7.18;2.50;;;;;;;31.14;26.55;101701.91;5006646;28;20022;-58
2022/08/12 12:40:47;;;;;;;7.60;2.80;;;;;;;31.24;26.10;101702.97;5007986;28;20037;-58
2022/08/12 12:43:13;;;;;;;4.47;2.50;;;;;;;31.28;26.14;101704.03;5002903;28;20076;-59
2022/08/12 12:45:39;;;;;;;3.67;2.50;;;;;;;31.45;26.16;101698.91;4996122;28;20624;-58
2022/08/12 12:48:10;;;;;;;7.35;2.53;;;;;;;31.50;26.21;101692.53;4994984;28;20042;-58
2022/08/12 12:50:40;;;;;;;10.85;4.45;;;;;;;31.62;26.33;101695.72;5001703;28;20022;-58
2022/08/12 12:53:07;;;;;;;6.20;2.58;;;;;;;31.75;26.39;101700.53;5000429;28;20079;-59
2022/08/12 12:55:34;;;;;;;6.38;2.30;;;;;;;31.73;26.28;101698.09;5004881;28;20025;-59
2022/08/12 12:58:03;;;;;;;4.25;2.70;;;;;;;31.92;25.87;101689.09;5001212;28;20057;-59
2022/08/12 13:00:30;;;;;;;7.75;2.70;;;;;;;32.00;26.28;101688.44;5001974;28;20052;-58
2022/08/12 13:02:55;;;;;;;5.18;2.53;;;;;;;32.05;26.13;101682.88;4998109;28;20079;-59
2022/08/12 13:05:34;;;;;;;6.25;3.50;;;;;;;32.15;25.72;101676.44;5013519;28;20021;-57
2022/08/12 13:08:02;;;;;;;7.50;2.70;;;;;;;32.05;25.32;101674.63;5006093;28;20034;-57
2022/08/12 13:10:29;;;;;;;6.32;2.60;;;;;;;32.08;25.57;101676.78;5009917;28;20025;-59